Time;durP1;ratioP1;P1;durP2;ratioP2;P2;SDS_P1;SDS_P2;PMS_P1;PMS_P2;Temp;Humidity;BMP_temperature;BMP_pressure;BME280_temperature;BME280_humidity;BME280_pressure;Samples;Min_cycle;Max_cycle;Signal;HPM_P1;HPM_P2
2021/12/02 00:00:30;;;;;;;;;0.00;0.00;;;;;8.89;73.27;99762.31;5054621;28;45410;-68
2021/12/02 00:02:55;;;;;;;;;0.00;0.00;;;;;8.86;73.68;99760.50;5055106;28;45351;-70
2021/12/02 00:05:22;;;;;;;;;0.00;0.00;;;;;8.86;73.17;99755.31;5058086;28;46082;-69
2021/12/02 00:07:48;;;;;;;;;0.00;0.00;;;;;8.89;73.23;99749.28;5057908;28;45467;-69
2021/12/02 00:10:14;;;;;;;;;0.00;0.00;;;;;8.89;73.15;99746.66;5055604;28;45445;-69
2021/12/02 00:12:39;;;;;;;;;0.00;0.00;;;;;8.91;73.22;99742.38;5058234;28;45315;-70
2021/12/02 00:15:09;;;;;;;;;0.00;0.00;;;;;8.90;72.65;99733.69;5048624;28;45384;-69
2021/12/02 00:17:39;;;;;;;;;0.00;0.00;;;;;8.88;72.80;99724.97;5054352;28;45519;-69
2021/12/02 00:23:11;;;;;;;;;6.75;6.50;;;;;8.85;72.89;99718.78;5057223;28;45462;-68
2021/12/02 00:25:36;;;;;;;;;0.00;0.00;;;;;8.85;73.21;99718.78;5055541;28;45507;-71
2021/12/02 00:28:04;;;;;;;;;0.00;0.00;;;;;8.84;72.07;99712.72;5057503;28;45584;-68
2021/12/02 00:30:31;;;;;;;;;0.00;0.00;;;;;8.86;72.40;99704.94;5057724;28;45473;-69
2021/12/02 00:32:59;;;;;;;;;0.00;0.00;;;;;8.83;72.48;99705.72;5057697;28;45459;-71
2021/12/02 00:35:25;;;;;;;;;0.00;0.00;;;;;8.82;72.61;99701.38;5057375;28;45413;-69
2021/12/02 00:37:51;;;;;;;;;0.00;0.00;;;;;8.73;71.93;99689.03;5057282;28;45342;-71
2021/12/02 00:40:17;;;;;;;;;0.00;0.00;;;;;8.77;71.65;99695.16;5057749;28;45359;-70
2021/12/02 00:42:43;;;;;;;;;0.00;0.00;;;;;8.72;72.05;99675.97;5056337;28;45573;-71
2021/12/02 00:45:08;;;;;;;;;0.00;0.00;;;;;8.71;71.56;99677.69;5057630;28;46035;-69
2021/12/02 00:47:37;;;;;;;;;0.00;0.00;;;;;8.71;72.23;99682.00;5054526;28;45402;-69
2021/12/02 00:50:03;;;;;;;;;0.00;0.00;;;;;8.56;71.91;99662.59;5057528;28;45420;-70
2021/12/02 00:52:31;;;;;;;;;0.00;0.00;;;;;8.60;72.57;99670.47;5057568;28;45566;-71
2021/12/02 00:54:56;;;;;;;;;0.00;0.00;;;;;8.62;72.68;99676.59;5047601;28;45442;-69
2021/12/02 00:57:23;;;;;;;;;0.00;0.00;;;;;8.65;72.41;99677.53;5047581;28;45518;-70
2021/12/02 00:59:49;;;;;;;;;1.00;1.00;;;;;8.67;72.67;99696.66;5057346;28;45465;-70
2021/12/02 01:02:15;;;;;;;;;10.50;9.75;;;;;8.55;73.87;99701.59;5054628;28;45388;-68
2021/12/02 01:04:41;;;;;;;;;3.33;3.33;;;;;8.61;74.18;99724.28;5056799;28;46278;-68
2021/12/02 01:07:08;;;;;;;;;0.00;0.00;;;;;8.61;74.39;99760.75;5057048;28;45520;-70
2021/12/02 01:09:34;;;;;;;;;0.00;0.00;;;;;8.56;74.82;99766.72;5055755;28;45428;-69
2021/12/02 01:12:01;;;;;;;;;0.00;0.00;;;;;8.58;75.04;99758.09;5057102;28;45464;-68
2021/12/02 01:14:27;;;;;;;;;0.00;0.00;;;;;8.52;74.80;99738.84;5056352;28;45418;-68
2021/12/02 01:16:53;;;;;;;;;0.00;0.00;;;;;8.58;74.65;99738.13;5056363;28;45301;-69
2021/12/02 01:19:19;;;;;;;;;0.00;0.00;;;;;8.61;74.19;99743.38;5056934;28;45419;-69
2021/12/02 01:21:48;;;;;;;;;0.00;0.00;;;;;8.58;74.07;99729.44;5057399;28;45517;-69
2021/12/02 01:24:16;;;;;;;;;0.00;0.00;;;;;8.60;74.42;99738.16;5056570;28;45431;-69
2021/12/02 01:26:49;;;;;;;;;0.00;0.00;;;;;8.59;73.95;99734.66;5056582;28;45662;-68
2021/12/02 01:29:17;;;;;;;;;0.00;0.00;;;;;8.61;73.84;99732.97;5054226;28;45414;-69
2021/12/02 01:31:43;;;;;;;;;0.00;0.00;;;;;8.63;74.00;99730.41;5057084;28;45581;-68
2021/12/02 01:34:09;;;;;;;;;0.00;0.00;;;;;8.57;74.80;99715.53;5056742;28;46063;-69
2021/12/02 01:36:38;;;;;;;;;0.00;0.00;;;;;8.55;74.51;99706.78;5053957;28;45458;-69
2021/12/02 01:39:06;;;;;;;;;0.00;0.00;;;;;8.62;75.25;99716.53;5056787;28;45431;-68
2021/12/02 01:41:45;;;;;;;;;0.00;0.00;;;;;8.59;74.18;99716.44;5056825;28;45363;-70
2021/12/02 01:44:14;;;;;;;;;0.00;0.00;;;;;8.62;74.46;99713.94;5056341;28;46231;-69
2021/12/02 01:46:42;;;;;;;;;0.00;0.00;;;;;8.58;74.49;99712.09;5056641;28;45514;-69
2021/12/02 01:49:10;;;;;;;;;0.00;0.00;;;;;8.60;74.21;99700.00;5056658;28;45457;-68
2021/12/02 01:51:48;;;;;;;;;0.00;0.00;;;;;8.58;74.17;99706.88;5056665;28;45604;-68
2021/12/02 01:54:17;;;;;;;;;0.00;0.00;;;;;8.50;74.50;99696.28;5056207;28;46101;-69
2021/12/02 01:56:53;;;;;;;;;0.00;0.00;;;;;8.54;74.14;99703.31;5055040;28;45516;-68
2021/12/02 01:59:22;;;;;;;;;0.00;0.00;;;;;8.56;74.29;99703.38;5054137;28;45351;-69
2021/12/02 02:01:51;;;;;;;;;0.00;0.00;;;;;8.54;74.28;99700.72;5056330;28;45533;-70
2021/12/02 02:04:19;;;;;;;;;0.00;0.00;;;;;8.51;74.40;99705.84;5053630;28;46160;-70
2021/12/02 02:06:57;;;;;;;;;0.00;0.00;;;;;8.51;75.10;99704.97;5054713;28;45415;-69
2021/12/02 02:09:31;;;;;;;;;0.00;0.00;;;;;8.41;74.95;99693.44;5054579;28;45370;-69
2021/12/02 02:11:58;;;;;;;;;0.00;0.00;;;;;8.46;74.62;99707.47;5052520;28;45494;-69
2021/12/02 02:14:26;;;;;;;;;0.00;0.00;;;;;8.47;74.51;99704.00;5056013;28;46065;-69
2021/12/02 02:16:53;;;;;;;;;0.00;0.00;;;;;8.45;74.56;99689.19;5057113;28;45210;-69
2021/12/02 02:19:19;;;;;;;;;0.00;0.00;;;;;8.41;74.53;99684.72;5056479;28;45594;-70
2021/12/02 02:21:44;;;;;;;;;0.00;0.00;;;;;8.42;74.51;99691.75;5057859;28;45417;-69
2021/12/02 02:24:15;;;;;;;;;0.00;0.00;;;;;8.40;74.82;99682.97;5057816;28;45988;-68
2021/12/02 02:26:42;;;;;;;;;0.00;0.00;;;;;8.40;74.84;99690.78;5057524;28;45481;-69
2021/12/02 02:29:10;;;;;;;;;0.00;0.00;;;;;8.34;74.36;99681.97;5058034;28;45436;-68
2021/12/02 02:31:38;;;;;;;;;0.00;0.00;;;;;8.39;74.36;99697.69;5058276;28;45426;-70
2021/12/02 02:34:05;;;;;;;;;0.00;0.00;;;;;8.38;74.25;99690.75;5057628;28;46182;-68
2021/12/02 02:36:36;;;;;;;;;0.00;0.00;;;;;8.29;74.47;99678.38;5057360;28;45573;-69
2021/12/02 02:39:03;;;;;;;;;0.00;0.00;;;;;8.38;73.91;99690.75;5057522;28;45690;-69
2021/12/02 02:41:34;;;;;;;;;0.00;0.00;;;;;8.37;73.98;99688.97;5056425;28;45303;-70
2021/12/02 02:44:00;;;;;;;;;0.00;0.00;;;;;8.29;74.06;99678.38;5057209;28;46087;-69
2021/12/02 02:46:35;;;;;;;;;0.00;0.00;;;;;8.31;74.09;99692.28;5057142;28;45469;-69
2021/12/02 02:49:03;;;;;;;;;0.00;0.00;;;;;8.33;74.31;99700.16;5056021;28;45460;-68
2021/12/02 02:51:31;;;;;;;;;0.00;0.00;;;;;8.28;73.96;99717.38;5057357;28;45485;-70
2021/12/02 02:54:02;;;;;;;;;0.00;0.00;;;;;8.24;75.17;99746.75;5057118;28;45357;-69
2021/12/02 02:56:30;;;;;;;;;0.00;0.00;;;;;8.27;75.65;99749.44;5057093;28;45500;-71
2021/12/02 02:59:15;;;;;;;;;0.00;0.00;;;;;8.27;73.27;99726.00;5057164;28;45160;-68
2021/12/02 03:01:52;;;;;;;;;0.00;0.00;;;;;8.17;73.99;99720.56;5056268;28;45354;-68
2021/12/02 03:04:28;;;;;;;;;0.00;0.00;;;;;7.97;73.88;99688.81;5056690;28;45521;-68
2021/12/02 03:07:03;;;;;;;;;0.00;0.00;;;;;7.99;73.52;99714.88;5056567;28;45501;-68
2021/12/02 03:12:16;;;;;;;;;0.00;0.00;;;;;8.00;75.41;99726.16;5057035;28;45370;-69
2021/12/02 03:17:11;;;;;;;;;0.00;0.00;;;;;8.05;75.23;99735.84;5057279;28;45465;-69
2021/12/02 03:19:41;;;;;;;;;0.00;0.00;;;;;8.08;75.18;99745.47;5055722;28;45404;-69
2021/12/02 03:22:07;;;;;;;;;0.00;0.00;;;;;8.04;74.43;99725.38;5057158;28;45308;-69
2021/12/02 03:24:32;;;;;;;;;0.00;0.00;;;;;8.11;75.50;99746.41;5056436;28;45933;-69
2021/12/02 03:26:58;;;;;;;;;0.00;0.00;;;;;8.07;75.50;99748.91;5056515;28;45581;-70
2021/12/02 03:29:24;;;;;;;;;0.00;0.00;;;;;8.03;75.95;99754.84;5056854;28;45325;-69
2021/12/02 03:31:50;;;;;;;;;0.00;0.00;;;;;8.01;75.39;99736.59;5057039;28;45512;-69
2021/12/02 03:34:16;;;;;;;;;0.00;0.00;;;;;8.01;75.54;99723.59;5056621;28;46118;-69
2021/12/02 03:36:42;;;;;;;;;0.00;0.00;;;;;8.03;75.03;99726.25;5057028;28;45398;-69
2021/12/02 03:39:10;;;;;;;;;0.67;0.00;;;;;7.95;75.27;99708.69;5058724;28;45224;-69
2021/12/02 03:41:37;;;;;;;;;0.00;0.00;;;;;7.89;76.17;99692.94;5060368;28;45421;-68
2021/12/02 03:44:03;;;;;;;;;0.00;0.00;;;;;7.96;75.46;99715.69;5059946;28;45512;-69
2021/12/02 03:46:29;;;;;;;;;0.00;0.00;;;;;7.96;76.04;99722.63;5060025;28;45378;-68
2021/12/02 03:48:58;;;;;;;;;0.00;0.00;;;;;7.96;75.84;99720.88;5060131;28;45529;-69
2021/12/02 03:51:24;;;;;;;;;0.00;0.00;;;;;7.97;75.70;99730.44;5060368;28;45399;-70
2021/12/02 03:53:50;;;;;;;;;0.00;0.00;;;;;7.90;75.35;99720.72;5059668;28;46207;-69
2021/12/02 03:56:16;;;;;;;;;0.00;0.00;;;;;7.94;75.28;99722.56;5059776;28;45411;-68
2021/12/02 03:58:45;;;;;;;;;0.00;0.00;;;;;7.85;75.12;99722.28;5060048;28;45453;-68
2021/12/02 04:01:12;;;;;;;;;1.00;0.50;;;;;7.89;75.35;99728.47;5060409;28;45305;-68
2021/12/02 04:03:38;;;;;;;;;0.00;0.00;;;;;7.89;75.59;99734.53;5059510;28;46104;-70
2021/12/02 04:06:05;;;;;;;;;0.00;0.00;;;;;7.89;75.36;99736.28;5059449;28;45561;-69
2021/12/02 04:08:50;;;;;;;;;0.00;0.00;;;;;7.84;75.16;99741.34;5059754;28;45464;-70
2021/12/02 04:16:25;;;;;;;;;0.00;0.00;;;;;7.83;75.16;99749.97;5059412;28;45418;-69
2021/12/02 04:18:50;;;;;;;;;0.00;0.00;;;;;7.70;75.78;99740.97;5059496;28;45386;-70
2021/12/02 04:21:16;;;;;;;;;0.00;0.00;;;;;7.66;75.59;99744.31;5059891;28;45410;-69
2021/12/02 04:23:42;;;;;;;;;0.00;0.00;;;;;7.75;75.31;99756.69;5059017;28;46158;-69
2021/12/02 04:26:07;;;;;;;;;3.00;2.75;;;;;7.76;75.39;99751.53;5059205;28;45539;-69
2021/12/02 04:28:33;;;;;;;;;0.00;0.00;;;;;7.80;74.94;99751.59;5059311;28;45412;-70
2021/12/02 04:30:59;;;;;;;;;0.00;0.00;;;;;7.70;74.76;99729.66;5059617;28;45445;-69
2021/12/02 04:33:24;;;;;;;;;0.00;0.00;;;;;7.80;75.01;99739.50;5059277;28;45541;-68
2021/12/02 04:35:52;;;;;;;;;0.00;0.00;;;;;7.79;75.13;99735.13;5059430;28;45348;-69
2021/12/02 04:38:19;;;;;;;;;0.00;0.00;;;;;7.76;75.33;99729.88;5059847;28;45934;-69
2021/12/02 04:40:44;;;;;;;;;0.00;0.00;;;;;7.82;75.18;99752.53;5059902;28;45208;-69
2021/12/02 04:43:10;;;;;;;;;0.00;0.00;;;;;7.72;75.35;99735.81;5059203;28;45966;-69
2021/12/02 04:45:35;;;;;;;;;0.00;0.00;;;;;7.78;74.84;99746.38;5059432;28;45496;-68
2021/12/02 04:48:02;;;;;;;;;0.00;0.00;;;;;7.75;75.22;99744.56;5059370;28;45467;-69
2021/12/02 04:50:27;;;;;;;;;0.00;0.00;;;;;7.76;75.07;99751.53;5058093;28;45338;-68
2021/12/02 04:52:53;;;;;;;;;0.67;0.00;;;;;7.66;74.82;99736.50;5058755;28;45574;-68
2021/12/02 04:55:21;;;;;;;;;0.00;0.00;;;;;7.75;74.94;99752.34;5059189;28;45496;-68
2021/12/02 04:57:50;;;;;;;;;0.00;0.00;;;;;7.74;74.97;99757.53;5059504;28;45331;-68
2021/12/02 05:00:16;;;;;;;;;0.00;0.00;;;;;7.66;75.50;99746.91;5058214;28;45511;-69
2021/12/02 05:02:42;;;;;;;;;0.00;0.00;;;;;7.64;75.54;99752.88;5058787;28;45515;-70
2021/12/02 05:05:09;;;;;;;;;0.00;0.00;;;;;7.57;75.79;99751.84;5058801;28;45331;-69
2021/12/02 05:07:35;;;;;;;;;0.00;0.00;;;;;7.65;75.44;99758.13;5058657;28;45462;-69
2021/12/02 05:10:03;;;;;;;;;0.00;0.00;;;;;7.64;75.88;99764.19;5059111;28;45493;-69
2021/12/02 05:12:28;;;;;;;;;4.00;2.00;;;;;7.60;76.10;99761.44;5058533;28;46057;-68
2021/12/02 05:14:54;;;;;;;;;1.75;0.00;;;;;7.67;75.81;99779.84;5058391;28;45368;-68
2021/12/02 05:17:19;;;;;;;;;0.50;0.00;;;;;7.71;75.76;99786.03;5058850;28;45486;-70
2021/12/02 05:19:45;;;;;;;;;3.00;2.00;;;;;7.67;76.22;99787.66;5058536;28;45402;-68
2021/12/02 05:22:11;;;;;;;;;0.75;0.25;;;;;7.67;76.20;99785.06;5056321;28;46084;-68
2021/12/02 05:24:37;;;;;;;;;0.75;0.00;;;;;7.55;75.95;99776.91;5056874;28;45491;-68
2021/12/02 05:27:04;;;;;;;;;2.25;2.00;;;;;7.42;76.40;99790.34;5056615;28;45495;-69
2021/12/02 05:29:29;;;;;;;;;0.50;0.00;;;;;7.29;76.39;99789.97;5057072;28;45493;-69
2021/12/02 05:31:55;;;;;;;;;0.00;0.00;;;;;7.21;76.87;99794.06;5056623;28;45410;-68
2021/12/02 05:34:20;;;;;;;;;0.50;0.00;;;;;7.13;77.39;99788.63;5056570;28;45368;-68
2021/12/02 05:36:46;;;;;;;;;0.00;0.00;;;;;6.97;77.86;99778.59;5057253;28;45426;-68
2021/12/02 05:39:11;;;;;;;;;0.67;0.00;;;;;7.00;77.55;99791.66;5055479;28;45277;-68
2021/12/02 05:41:37;;;;;;;;;0.00;0.00;;;;;6.97;77.85;99783.78;5054047;28;48017;-67
2021/12/02 05:44:03;;;;;;;;;0.00;0.00;;;;;7.16;77.63;99799.13;5056504;28;45350;-71
2021/12/02 05:46:29;;;;;;;;;0.00;0.00;;;;;7.17;77.32;99784.41;5056723;28;45466;-68
2021/12/02 05:48:54;;;;;;;;;0.00;0.00;;;;;7.38;76.54;99794.56;5056692;28;45414;-68
2021/12/02 05:51:20;;;;;;;;;0.00;0.00;;;;;7.35;76.34;99791.91;5055077;28;46318;-69
2021/12/02 05:53:46;;;;;;;;;0.00;0.00;;;;;7.27;76.28;99791.66;5056733;28;45358;-68
2021/12/02 05:56:11;;;;;;;;;0.00;0.00;;;;;7.31;76.31;99801.31;5055448;28;45433;-66
2021/12/02 05:58:37;;;;;;;;;0.00;0.00;;;;;7.35;76.17;99792.75;5056715;28;45482;-68
2021/12/02 06:01:02;;;;;;;;;0.00;0.00;;;;;7.42;76.05;99801.66;5055855;28;46210;-68
2021/12/02 06:03:28;;;;;;;;;1.00;0.00;;;;;7.49;75.74;99813.09;5056556;28;45287;-69
2021/12/02 06:05:54;;;;;;;;;0.75;0.00;;;;;7.53;75.62;99812.38;5056397;28;45400;-68
2021/12/02 06:08:19;;;;;;;;;0.00;0.00;;;;;7.56;75.38;99820.25;5056635;28;45674;-69
2021/12/02 06:10:45;;;;;;;;;0.00;0.00;;;;;7.59;75.07;99820.34;5056349;28;45465;-71
2021/12/02 06:13:11;;;;;;;;;0.50;0.00;;;;;7.52;75.23;99818.38;5056183;28;45454;-69
2021/12/02 06:15:37;;;;;;;;;0.00;0.00;;;;;7.45;75.35;99801.72;5056203;28;45765;-68
2021/12/02 06:18:03;;;;;;;;;0.00;0.00;;;;;7.50;75.86;99813.16;5056141;28;45525;-69
2021/12/02 06:20:28;;;;;;;;;1.00;0.00;;;;;7.48;75.21;99814.84;5055911;28;46224;-71
2021/12/02 06:22:54;;;;;;;;;0.00;0.00;;;;;7.49;74.74;99815.69;5055882;28;45441;-68
2021/12/02 06:27:48;;;;;;;;;0.00;0.00;;;;;7.53;75.16;99812.38;5056354;28;45509;-68
2021/12/02 06:30:17;;;;;;;;;0.00;0.00;;;;;7.49;74.50;99794.91;5055850;28;46019;-69
2021/12/02 06:32:43;;;;;;;;;0.00;0.00;;;;;7.64;74.56;99815.28;5055648;28;45316;-68
2021/12/02 06:35:09;;;;;;;;;0.25;0.00;;;;;7.67;74.56;99811.06;5055936;28;45504;-68
2021/12/02 06:37:35;;;;;;;;;0.00;0.00;;;;;7.69;75.10;99819.78;5056210;28;45356;-68
2021/12/02 06:40:01;;;;;;;;;0.00;0.00;;;;;7.70;75.50;99837.16;5055558;28;46042;-67
2021/12/02 06:42:27;;;;;;;;;3.00;3.00;;;;;7.62;76.06;99859.44;5052808;28;45489;-68
2021/12/02 06:44:52;;;;;;;;;2.25;1.00;;;;;7.71;75.94;99882.22;5056833;28;45488;-68
2021/12/02 06:47:20;;;;;;;;;0.50;0.50;;;;;7.72;74.37;99882.28;5057750;28;45290;-68
2021/12/02 06:49:46;;;;;;;;;1.00;0.00;;;;;7.75;74.11;99866.75;5056895;28;45478;-68
2021/12/02 06:52:14;;;;;;;;;1.50;1.00;;;;;7.65;74.08;99875.13;5056764;28;45426;-68
2021/12/02 06:54:40;;;;;;;;;0.00;0.00;;;;;7.55;74.76;99863.53;5057443;28;45218;-68
2021/12/02 06:57:06;;;;;;;;;1.75;0.00;;;;;7.68;74.49;99872.63;5057394;28;45500;-69
2021/12/02 06:59:35;;;;;;;;;0.75;0.00;;;;;7.68;74.83;99863.91;5056851;28;45592;-69
2021/12/02 07:02:01;;;;;;;;;0.75;0.00;;;;;7.66;74.44;99861.28;5056691;28;46066;-68
2021/12/02 07:04:26;;;;;;;;;3.50;2.00;;;;;7.60;75.22;99861.13;5057172;28;45269;-68
2021/12/02 07:06:52;;;;;;;;;0.25;0.25;;;;;7.47;74.43;99841.63;5057304;28;45545;-67
2021/12/02 07:09:17;;;;;;;;;1.00;0.00;;;;;7.54;74.44;99850.50;5055850;28;47795;-70
2021/12/02 07:11:43;;;;;;;;;1.00;0.00;;;;;7.50;75.27;99859.94;5056936;28;45546;-68
2021/12/02 07:14:15;;;;;;;;;1.50;1.00;;;;;7.51;74.99;99856.50;5059208;28;45224;-68
2021/12/02 07:16:41;;;;;;;;;1.00;0.00;;;;;7.52;75.25;99859.97;5060808;28;45528;-68
2021/12/02 07:19:08;;;;;;;;;1.00;0.00;;;;;7.52;75.24;99853.06;5060478;28;46108;-68
2021/12/02 07:21:39;;;;;;;;;3.00;3.00;;;;;7.56;75.98;99857.53;5060574;28;45481;-68
2021/12/02 07:24:06;;;;;;;;;8.50;8.25;;;;;7.56;76.10;99865.31;5060154;28;45434;-68
2021/12/02 07:26:41;;;;;;;;;5.00;3.50;;;;;7.56;76.05;99864.44;5060254;28;45545;-68
2021/12/02 07:29:11;;;;;;;;;3.00;2.75;;;;;7.48;76.35;99864.22;5060135;28;46095;-69
2021/12/02 07:31:39;;;;;;;;;3.00;3.00;;;;;7.56;76.20;99890.44;5060199;28;45307;-68
2021/12/02 07:34:05;;;;;;;;;1.00;1.00;;;;;7.48;75.86;99885.00;5058819;28;45245;-75
2021/12/02 07:36:33;;;;;;;;;2.50;2.00;;;;;7.59;76.03;99915.63;5055947;28;45282;-67
2021/12/02 07:39:05;;;;;;;;;2.00;2.00;;;;;7.59;75.75;99907.84;5059045;28;46267;-68
2021/12/02 07:41:31;;;;;;;;;14.00;12.00;;;;;7.65;75.86;99902.84;5059145;28;45580;-70
2021/12/02 07:43:57;;;;;;;;;0.75;0.75;;;;;7.65;75.67;99901.09;5059186;28;45431;-69
2021/12/02 07:46:22;;;;;;;;;1.00;1.00;;;;;7.66;75.31;99896.78;5060387;28;45264;-67
2021/12/02 07:48:48;;;;;;;;;0.00;0.00;;;;;7.65;75.38;99895.03;5058091;28;45828;-67
2021/12/02 07:51:16;;;;;;;;;0.00;0.00;;;;;7.57;75.27;99882.66;5060085;28;45304;-68
2021/12/02 07:53:47;;;;;;;;;0.25;0.00;;;;;7.68;74.30;99900.31;5060117;28;45360;-67
2021/12/02 07:56:18;;;;;;;;;1.00;1.00;;;;;7.63;74.62;99917.50;5060039;28;45477;-70
2021/12/02 07:58:46;;;;;;;;;3.00;2.00;;;;;7.67;75.79;99948.84;5059945;28;46100;-67
2021/12/02 08:01:13;;;;;;;;;1.50;0.50;;;;;7.64;73.89;99940.94;5058845;28;45505;-67
2021/12/02 08:03:47;;;;;;;;;1.25;0.25;;;;;7.67;73.77;99934.97;5060011;28;45216;-67
2021/12/02 08:06:14;;;;;;;;;0.00;0.00;;;;;7.65;73.50;99921.91;5060105;28;45401;-67
2021/12/02 08:08:41;;;;;;;;;1.00;1.00;;;;;7.67;74.01;99933.22;5059518;28;46039;-69
2021/12/02 08:11:08;;;;;;;;;0.00;0.00;;;;;7.69;73.57;99939.38;5059699;28;45272;-67
2021/12/02 08:13:33;;;;;;;;;0.50;0.50;;;;;7.68;74.02;99935.00;5059716;28;45832;-66
2021/12/02 08:16:01;;;;;;;;;175.75;138.00;;;;;7.71;73.88;99937.69;5059785;28;45350;-70
2021/12/02 08:18:29;;;;;;;;;9.00;5.00;;;;;7.67;73.11;99927.16;5059567;28;46056;-68
2021/12/02 08:20:55;;;;;;;;;3.00;2.00;;;;;7.82;73.57;99950.16;5059874;28;45560;-69
2021/12/02 08:23:21;;;;;;;;;14.25;12.00;;;;;7.75;73.74;99931.75;5059702;28;45523;-71
2021/12/02 08:25:48;;;;;;;;;48.25;40.25;;;;;7.91;73.48;99940.91;5059407;28;45433;-69
2021/12/02 08:28:15;;;;;;;;;30.00;25.50;;;;;7.95;73.71;99952.31;5059228;28;46255;-70
2021/12/02 08:30:41;;;;;;;;;40.75;33.00;;;;;8.02;73.81;99954.28;5059334;28;45524;-69
2021/12/02 08:33:08;;;;;;;;;58.25;46.00;;;;;8.01;74.11;99939.47;5059413;28;45270;-68
2021/12/02 08:35:35;;;;;;;;;40.75;32.75;;;;;8.10;73.66;99952.78;5059515;28;45533;-68
2021/12/02 08:38:11;;;;;;;;;35.25;26.50;;;;;8.19;73.90;99953.88;5058921;28;46142;-68
2021/12/02 08:40:38;;;;;;;;;12.25;12.25;;;;;8.25;73.97;99956.66;5059132;28;45537;-68
2021/12/02 08:43:07;;;;;;;;;9.25;8.25;;;;;8.28;74.18;99951.56;5059404;28;45393;-70
2021/12/02 08:45:35;;;;;;;;;7.25;6.25;;;;;8.29;74.24;99961.13;5059308;28;45484;-69
2021/12/02 08:48:01;;;;;;;;;9.50;8.25;;;;;8.30;74.38;99955.09;5058806;28;45450;-70
2021/12/02 08:50:27;;;;;;;;;7.00;5.50;;;;;8.27;74.67;99942.84;5059208;28;45395;-68
2021/12/02 08:52:53;;;;;;;;;8.25;4.00;;;;;8.34;74.54;99946.53;5059667;28;45241;-67
2021/12/02 08:55:22;;;;;;;;;14.00;14.00;;;;;8.39;74.67;99942.34;5059099;28;45438;-69
2021/12/02 08:57:48;;;;;;;;;24.25;22.00;;;;;8.44;74.30;99940.78;5058902;28;45277;-70
2021/12/02 09:00:18;;;;;;;;;17.75;15.25;;;;;8.51;74.15;99940.13;5057529;28;45552;-71
2021/12/02 09:02:44;;;;;;;;;8.75;8.75;;;;;8.61;73.84;99951.66;5058837;28;45382;-69
2021/12/02 09:05:10;;;;;;;;;7.00;5.00;;;;;8.67;74.06;99950.97;5059161;28;45466;-68
2021/12/02 09:07:36;;;;;;;;;7.50;5.00;;;;;8.70;72.93;99957.16;5058630;28;46427;-71
2021/12/02 09:10:05;;;;;;;;;8.00;7.00;;;;;8.61;72.56;99945.59;5058732;28;45390;-69
2021/12/02 09:12:31;;;;;;;;;2.50;1.50;;;;;8.64;73.81;99958.72;5058801;28;45448;-70
2021/12/02 09:14:56;;;;;;;;;4.00;4.00;;;;;8.58;73.97;99963.75;5059192;28;45435;-68
2021/12/02 09:17:22;;;;;;;;;2.00;2.00;;;;;8.33;74.96;99939.56;5058446;28;45460;-68
2021/12/02 09:19:48;;;;;;;;;4.50;4.00;;;;;8.39;75.68;99975.28;5058455;28;45490;-69
2021/12/02 09:22:14;;;;;;;;;8.00;6.00;;;;;8.34;74.86;99978.66;5058668;28;45267;-68
2021/12/02 09:24:39;;;;;;;;;3.75;3.75;;;;;8.24;75.51;99996.56;5059023;28;46110;-67
2021/12/02 09:27:06;;;;;;;;;1.25;1.25;;;;;8.24;74.17;99991.34;5058310;28;45564;-72
2021/12/02 09:29:32;;;;;;;;;2.00;1.00;;;;;8.29;74.70;99984.53;5058627;28;45349;-72
2021/12/02 09:31:57;;;;;;;;;1.00;0.25;;;;;8.29;75.34;99984.53;5058735;28;45304;-67
2021/12/02 09:34:23;;;;;;;;;1.00;1.00;;;;;8.39;75.66;100011.72;5058704;28;45252;-67
2021/12/02 09:36:49;;;;;;;;;1.00;1.00;;;;;8.41;75.38;100002.25;5057608;28;46065;-72
2021/12/02 09:39:15;;;;;;;;;1.50;1.50;;;;;8.36;74.89;99987.38;5058379;28;45395;-73
2021/12/02 09:41:44;;;;;;;;;8.75;7.50;;;;;8.51;75.24;100004.31;5058269;28;45495;-69
2021/12/02 09:44:10;;;;;;;;;1.00;1.00;;;;;8.59;74.88;100005.41;5058592;28;45501;-68
2021/12/02 09:46:39;;;;;;;;;3.25;3.25;;;;;8.69;74.78;100001.38;5057879;28;45334;-69
2021/12/02 09:49:06;;;;;;;;;10.75;9.50;;;;;8.75;73.71;100004.16;5058214;28;45445;-70
2021/12/02 09:51:39;;;;;;;;;24.75;23.00;;;;;8.84;74.01;100007.03;5058119;28;45636;-69
2021/12/02 09:54:13;;;;;;;;;31.75;28.25;;;;;9.03;73.47;100017.94;5058291;28;45337;-68
2021/12/02 09:56:41;;;;;;;;;9.00;8.50;;;;;9.22;73.23;100019.34;5058010;28;45942;-67
2021/12/02 09:59:12;;;;;;;;;9.25;9.00;;;;;9.42;73.21;100027.69;5057906;28;45291;-70
2021/12/02 10:01:47;;;;;;;;;9.75;8.75;;;;;9.58;72.90;100036.78;5058013;28;45437;-71
2021/12/02 10:04:13;;;;;;;;;17.50;15.00;;;;;9.78;72.36;100034.69;5058108;28;45402;-68
2021/12/02 10:06:41;;;;;;;;;29.00;25.25;;;;;9.98;71.52;100020.41;5057627;28;45316;-67
2021/12/02 10:09:17;;;;;;;;;18.25;13.25;;;;;10.06;70.67;100016.22;5057758;28;45326;-67
2021/12/02 10:12:00;;;;;;;;;4.00;4.00;;;;;10.06;71.14;100042.34;5056601;28;45545;-67
2021/12/02 10:14:35;;;;;;;;;5.00;5.00;;;;;9.87;71.56;100051.47;5058004;28;45336;-68
2021/12/02 10:17:33;;;;;;;;;5.00;5.00;;;;;9.73;72.55;100065.88;5057990;28;46452;-68
2021/12/02 10:20:17;;;;;;;;;4.25;4.00;;;;;9.65;72.03;100076.13;5057772;28;45412;-68
2021/12/02 10:23:05;;;;;;;;;5.00;3.33;;;;;9.58;72.69;100086.34;5057679;28;45479;-68
2021/12/02 10:25:33;;;;;;;;;2.00;1.00;;;;;9.43;73.36;100065.94;5054359;28;46601;-70
2021/12/02 10:28:06;;;;;;;;;5.00;4.00;;;;;9.45;73.53;100085.13;5054680;28;45442;-78
2021/12/02 10:30:32;;;;;;;;;4.00;3.50;;;;;9.38;74.08;100084.06;5055706;28;45411;-77
2021/12/02 10:32:58;;;;;;;;;0.33;0.00;;;;;9.35;74.39;100089.19;5056511;28;45742;-72
2021/12/02 10:35:45;;;;;;;;;1.00;1.00;;;;;9.39;73.97;100097.97;5057273;28;45368;-70
2021/12/02 10:38:46;;;;;;;;;6.00;6.00;;;;;9.54;73.78;100103.63;5056185;28;46139;-68
2021/12/02 10:41:16;;;;;;;;;11.75;11.00;;;;;9.63;73.38;100110.78;4994157;28;45425;-68
2021/12/02 10:44:16;;;;;;;;;4.25;4.00;;;;;9.67;73.42;100110.94;5044847;28;45569;-69
2021/12/02 10:47:02;;;;;;;;;4.00;3.00;;;;;9.99;73.39;100128.25;5056532;28;45378;-72
2021/12/02 10:49:31;;;;;;;;;2.25;2.25;;;;;10.12;72.89;100126.00;5056094;28;45640;-69
2021/12/02 10:52:01;;;;;;;;;0.00;0.00;;;;;10.21;71.42;100129.72;5055935;28;45480;-71
2021/12/02 10:54:30;;;;;;;;;2.33;2.00;;;;;10.21;70.93;100127.09;5056129;28;45453;-76
2021/12/02 10:57:05;;;;;;;;;2.00;1.00;;;;;10.31;70.94;100135.22;5055363;28;45463;-73
2021/12/02 10:59:44;;;;;;;;;0.00;0.00;;;;;10.49;71.06;100146.94;5055446;28;45493;-73
2021/12/02 11:02:22;;;;;;;;;2.00;1.00;;;;;10.66;70.53;100147.34;5055736;28;45507;-77
2021/12/02 11:04:53;;;;;;;;;10.75;10.25;;;;;10.85;69.80;100144.28;5055124;28;46396;-75
2021/12/02 11:07:25;;;;;;;;;4.00;4.00;;;;;11.06;69.64;100148.22;5055893;28;45346;-70
2021/12/02 11:09:53;;;;;;;;;6.00;5.00;;;;;11.26;68.89;100146.03;5055399;28;45473;-71
2021/12/02 11:12:31;;;;;;;;;5.75;5.75;;;;;11.41;68.24;100146.34;5055819;28;45405;-72
2021/12/02 11:15:09;;;;;;;;;16.25;13.25;;;;;11.44;67.81;100148.13;5055782;28;45382;-75
2021/12/02 11:17:47;;;;;;;;;7.00;5.00;;;;;11.48;67.57;100149.94;5055470;28;45389;-71
2021/12/02 11:20:25;;;;;;;;;1.00;1.00;;;;;11.66;66.95;100137.25;5053778;28;46268;-73
2021/12/02 11:23:04;;;;;;;;;0.67;0.33;;;;;12.12;66.06;100148.59;5054134;28;45422;-71
2021/12/02 11:25:31;;;;;;;;;1.33;1.33;;;;;12.41;65.33;100148.16;5053576;28;45416;-72
2021/12/02 11:28:06;;;;;;;;;2.00;2.00;;;;;12.54;65.15;100157.13;5053899;28;45583;-73
2021/12/02 11:30:35;;;;;;;;;1.00;1.00;;;;;12.47;64.23;100153.53;5055742;28;45473;-78
2021/12/02 11:33:08;;;;;;;;;1.00;0.67;;;;;12.28;63.40;100149.72;5055497;28;45469;-79
2021/12/02 11:35:37;;;;;;;;;1.00;1.00;;;;;12.14;64.36;100159.97;5056264;28;45452;-72
2021/12/02 11:38:17;;;;;;;;;3.67;3.00;;;;;12.17;64.91;100161.75;5055564;28;45557;-74
2021/12/02 11:40:58;;;;;;;;;2.67;2.67;;;;;12.17;65.04;100179.19;5054213;28;45573;-76
2021/12/02 11:43:32;;;;;;;;;11.67;10.67;;;;;12.05;63.84;100178.13;5055676;28;45335;-71
2021/12/02 11:46:00;;;;;;;;;7.00;6.67;;;;;11.95;64.90;100186.66;5055794;28;45375;-70
2021/12/02 11:48:32;;;;;;;;;2.00;2.00;;;;;11.75;65.47;100188.88;5053869;28;45526;-75
2021/12/02 11:51:02;;;;;;;;;2.00;2.00;;;;;11.60;65.66;100205.16;5051088;28;45426;-69
2021/12/02 11:53:27;;;;;;;;;13.67;12.00;;;;;11.46;65.92;100198.75;5055705;28;45539;-72
2021/12/02 11:55:57;;;;;;;;;12.25;9.50;;;;;11.27;66.29;100203.59;5055617;28;45460;-72
2021/12/02 11:58:23;;;;;;;;;8.33;7.33;;;;;11.09;66.32;100211.03;5055321;28;45253;-76